Peoria Heights, Illinois
Current Conditions -  °F | °C
As of 7:54 AM on Sunday 23 Nov 2014 (Local Time) from KPIA Reporting Station
Broken Clouds Broken Clouds  
Wind Chill: 11°   Ceiling: 12000
Heat Index: 11°   Visibility: 10mi
Dew Point:   Wind: 12mph
Humidity: 77%   Direction: 170°S
Pressure: 29.7"   Gusts: NA
Location:  40.7452°N, 89.5738°W
Report Text: KPIA 231354Z 17010KT 10SM BKN120 11/07 A2970 RMK AO2 RAE33 SLP058 P0000 T01110072
Loading
Personal Weather Stations






























Interactive Weather Map New forecast layout! Learn more

10-Day Weather Forecast

Advertisements
Track Severe Weather on mobile